Time;durP1;ratioP1;P1;durP2;ratioP2;P2;SDS_P1;SDS_P2;PMS_P1;PMS_P2;Temp;Humidity;BMP_temperature;BMP_pressure;BME280_temperature;BME280_humidity;BME280_pressure;Samples;Min_cycle;Max_cycle;Signal;HPM_P1;HPM_P2
2024/02/17 00:02:19;;;;;;;24.83;23.23;;;;;;;5.43;100.00;102271.28;5000383;28;21168;-79
2024/02/17 00:04:50;;;;;;;28.42;26.73;;;;;;;5.40;100.00;102272.38;4998776;28;20069;-79
2024/02/17 00:07:22;;;;;;;27.40;25.80;;;;;;;5.33;100.00;102275.69;4993220;28;20058;-80
2024/02/17 00:09:50;;;;;;;24.90;23.47;;;;;;;5.34;100.00;102267.63;5005038;28;20041;-79
2024/02/17 00:12:21;;;;;;;27.45;25.75;;;;;;;5.41;100.00;102268.75;5004182;28;20305;-77
2024/02/17 00:14:48;;;;;;;28.70;27.02;;;;;;;5.31;100.00;102281.09;5008068;28;20041;-77
2024/02/17 00:17:15;;;;;;;26.75;24.92;;;;;;;5.35;100.00;102269.28;4992534;28;20088;-78
2024/02/17 00:19:42;;;;;;;28.95;26.60;;;;;;;5.27;100.00;102277.88;5009620;28;20136;-77
2024/02/17 00:22:12;;;;;;;29.77;27.42;;;;;;;5.37;100.00;102275.28;5000271;28;20558;-78
2024/02/17 00:24:39;;;;;;;27.23;25.52;;;;;;;5.42;100.00;102265.19;5017351;28;20050;-78
2024/02/17 00:27:09;;;;;;;31.58;29.38;;;;;;;5.33;100.00;102273.88;5007127;28;20053;-78
2024/02/17 00:29:39;;;;;;;29.10;27.50;;;;;;;5.34;100.00;102254.47;5009659;28;20054;-78
2024/02/17 00:32:07;;;;;;;27.52;25.33;;;;;;;5.31;100.00;102269.72;4990554;28;20133;-77
2024/02/17 00:34:35;;;;;;;26.75;25.15;;;;;;;5.35;100.00;102269.28;4996209;28;20050;-76
2024/02/17 00:37:02;;;;;;;26.38;24.88;;;;;;;5.51;100.00;102266.19;5001401;28;20050;-77
2024/02/17 00:39:33;;;;;;;32.60;30.02;;;;;;;5.42;100.00;102262.53;5006296;28;20140;-79
2024/02/17 00:42:08;;;;;;;29.08;27.38;;;;;;;5.44;100.00;102265.84;5010817;28;20425;-77
2024/02/17 00:44:35;;;;;;;28.85;27.05;;;;;;;5.39;100.00;102272.53;5010337;28;20061;-77
2024/02/17 00:47:02;;;;;;;26.63;24.85;;;;;;;5.29;100.00;102264.56;4997414;28;20077;-76
2024/02/17 00:49:51;;;;;;;30.55;28.58;;;;;;;5.40;100.00;102268.91;5010165;28;20065;-78
2024/02/17 00:52:18;;;;;;;26.83;25.30;;;;;;;5.30;100.00;102276.78;4993718;28;20536;-79
2024/02/17 00:55:07;;;;;;;29.40;27.42;;;;;;;5.32;100.00;102268.72;4999767;28;20049;-77
2024/02/17 00:57:33;;;;;;;27.42;25.75;;;;;;;5.32;100.00;102269.56;5010581;28;20060;-78
2024/02/17 01:00:04;;;;;;;31.00;28.77;;;;;;;5.40;100.00;102261.00;5003380;28;20056;-76
2024/02/17 01:02:32;;;;;;;29.02;27.23;;;;;;;5.38;100.00;102262.94;5010687;28;20054;-78
2024/02/17 01:05:00;;;;;;;26.52;24.52;;;;;;;5.36;100.00;102272.78;5010505;28;20555;-78
2024/02/17 01:07:27;;;;;;;29.48;27.55;;;;;;;5.34;100.00;102264.19;5010815;28;20477;-78
2024/02/17 01:09:55;;;;;;;28.92;27.23;;;;;;;5.27;100.00;102266.53;5005667;28;20050;-77
2024/02/17 01:12:25;;;;;;;32.58;30.45;;;;;;;5.27;100.00;102269.97;4987610;28;20053;-79
2024/02/17 01:14:52;;;;;;;26.10;24.45;;;;;;;5.11;100.00;102271.44;4995411;28;20053;-79
2024/02/17 01:17:21;;;;;;;29.15;26.67;;;;;;;5.15;100.00;102259.69;5011302;28;20077;-79
2024/02/17 01:19:48;;;;;;;32.25;30.30;;;;;;;5.11;100.00;102269.63;5009845;28;20132;-78
2024/02/17 01:22:15;;;;;;;34.25;32.17;;;;;;;5.14;100.00;102266.72;4995786;28;20046;-78
2024/02/17 01:24:43;;;;;;;32.80;30.60;;;;;;;5.23;100.00;102262.47;5010283;28;20050;-78
2024/02/17 01:27:17;;;;;;;27.33;25.52;;;;;;;5.18;100.00;102262.03;5000857;28;20054;-78
2024/02/17 01:29:45;;;;;;;28.50;26.60;;;;;;;5.15;100.00;102259.69;5009193;28;20056;-78
2024/02/17 01:32:13;;;;;;;31.25;28.77;;;;;;;5.18;100.00;102259.41;4996875;28;20058;-77
2024/02/17 01:34:40;;;;;;;31.35;29.13;;;;;;;5.11;100.00;102256.44;5009566;28;20050;-77
2024/02/17 01:37:08;;;;;;;28.25;26.45;;;;;;;5.13;100.00;102256.34;4996303;28;20133;-77
2024/02/17 01:39:36;;;;;;;29.70;27.75;;;;;;;5.13;100.00;102259.78;4999931;28;20054;-76
2024/02/17 01:42:36;;;;;;;32.00;29.90;;;;;;;5.13;100.00;102249.25;5010411;28;20050;-77
2024/02/17 01:45:07;;;;;;;28.67;26.67;;;;;;;5.13;100.00;102254.53;4997192;28;20054;-78
2024/02/17 01:47:42;;;;;;;28.15;26.25;;;;;;;5.18;100.00;102257.59;5007862;28;20140;-77
2024/02/17 01:50:20;;;;;;;28.88;26.92;;;;;;;5.16;100.00;102248.16;4990516;28;20073;-78
2024/02/17 01:52:50;;;;;;;31.45;29.45;;;;;;;5.09;100.00;102245.22;5007931;28;20056;-78
2024/02/17 01:55:20;;;;;;;29.13;27.27;;;;;;;5.17;100.00;102255.91;5009137;28;20513;-77
2024/02/17 01:57:51;;;;;;;29.27;27.05;;;;;;;5.10;100.00;102253.97;5009780;28;20525;-78
2024/02/17 02:00:21;;;;;;;30.38;28.30;;;;;;;5.12;100.00;102259.94;5009072;28;20140;-79
2024/02/17 02:02:50;;;;;;;30.30;28.10;;;;;;;5.08;100.00;102256.72;5006252;28;20050;-77
2024/02/17 02:05:17;;;;;;;31.92;29.73;;;;;;;5.05;100.00;102247.31;5001331;28;20046;-77
2024/02/17 02:07:51;;;;;;;31.10;28.23;;;;;;;5.03;100.00;102243.13;4997405;28;20133;-77
2024/02/17 02:10:31;;;;;;;28.67;26.77;;;;;;;4.97;100.00;102244.50;5008882;28;20071;-77
2024/02/17 02:13:02;;;;;;;28.40;26.60;;;;;;;4.98;100.00;102247.94;4994471;28;20425;-78
2024/02/17 02:15:42;;;;;;;32.55;30.25;;;;;;;4.96;100.00;102244.59;4996559;28;20054;-78
2024/02/17 02:18:12;;;;;;;33.55;31.08;;;;;;;4.98;100.00;102248.78;4998205;28;20050;-76
2024/02/17 02:20:45;;;;;;;30.17;28.00;;;;;;;4.91;100.00;102247.66;5009902;28;20108;-77
2024/02/17 02:23:16;;;;;;;28.15;26.35;;;;;;;4.91;100.00;102254.72;5004409;28;20050;-77
2024/02/17 02:26:12;;;;;;;30.83;29.05;;;;;;;4.99;100.00;102260.13;4993659;28;20092;-77
2024/02/17 02:28:39;;;;;;;31.75;29.85;;;;;;;4.97;100.00;102243.66;5004656;28;20440;-79
2024/02/17 02:31:11;;;;;;;32.00;29.92;;;;;;;5.03;100.00;102249.22;5006908;28;20057;-77
2024/02/17 02:33:41;;;;;;;28.80;26.87;;;;;;;4.99;100.00;102255.72;5008332;28;20056;-78
2024/02/17 02:36:13;;;;;;;31.30;28.67;;;;;;;4.97;100.00;102257.66;5003394;28;20080;-77
2024/02/17 02:38:50;;;;;;;31.10;29.10;;;;;;;4.88;100.00;102247.09;5005153;28;20056;-77
2024/02/17 02:41:24;;;;;;;35.28;33.08;;;;;;;5.03;100.00;102253.66;5010202;28;20050;-79
2024/02/17 02:43:56;;;;;;;34.08;31.95;;;;;;;4.99;100.00;102252.25;5006434;28;20437;-79
2024/02/17 02:46:28;;;;;;;33.10;31.00;;;;;;;5.00;100.00;102260.03;5003439;28;20161;-77
2024/02/17 02:49:12;;;;;;;33.17;30.92;;;;;;;4.96;100.00;102257.78;5008718;28;20058;-77
2024/02/17 02:51:39;;;;;;;33.05;30.88;;;;;;;4.74;100.00;102269.31;5005499;28;20057;-77
2024/02/17 02:54:17;;;;;;;33.15;30.92;;;;;;;4.76;100.00;102259.50;4996423;28;20132;-76
2024/02/17 02:56:56;;;;;;;33.40;31.15;;;;;;;4.85;100.00;102260.50;5011342;28;20057;-76
2024/02/17 02:59:35;;;;;;;33.33;31.13;;;;;;;4.77;100.00;102264.59;4999523;28;20108;-77
2024/02/17 03:02:05;;;;;;;34.70;32.70;;;;;;;4.81;100.00;102262.53;5010658;28;20104;-77
2024/02/17 03:04:31;;;;;;;35.92;33.05;;;;;;;4.71;100.00;102264.28;5010611;28;20049;-76
2024/02/17 03:06:58;;;;;;;35.05;32.65;;;;;;;4.79;100.00;102261.88;5010029;28;20778;-76
2024/02/17 03:09:25;;;;;;;34.78;32.38;;;;;;;4.73;100.00;102255.31;4999431;28;20050;-77
2024/02/17 03:12:18;;;;;;;31.77;29.88;;;;;;;4.73;100.00;102260.56;5003687;28;20057;-77
2024/02/17 03:15:02;;;;;;;34.53;32.38;;;;;;;4.77;100.00;102259.34;4996650;28;20057;-78
2024/02/17 03:17:56;;;;;;;33.47;31.58;;;;;;;4.76;100.00;102267.38;5013155;28;20050;-75
2024/02/17 03:20:30;;;;;;;31.15;29.25;;;;;;;4.72;100.00;102265.97;4988417;28;20089;-77
2024/02/17 03:22:57;;;;;;;38.58;35.95;;;;;;;4.75;100.00;102271.81;5011423;28;20042;-78
2024/02/17 03:25:24;;;;;;;34.00;32.10;;;;;;;4.71;100.00;102270.38;5002562;28;20057;-78
2024/02/17 03:27:52;;;;;;;35.35;33.25;;;;;;;4.73;100.00;102275.53;5011614;28;20068;-77
2024/02/17 03:30:28;;;;;;;35.28;32.70;;;;;;;4.75;100.00;102276.22;5010539;28;20066;-77
2024/02/17 03:32:54;;;;;;;34.55;31.70;;;;;;;4.79;100.00;102275.03;5024541;28;20144;-77
2024/02/17 03:35:22;;;;;;;34.40;32.25;;;;;;;4.81;100.00;102266.03;5010559;28;20057;-77
2024/02/17 03:37:49;;;;;;;38.92;36.53;;;;;;;4.72;100.00;102265.97;4999022;28;20042;-77
2024/02/17 03:40:22;;;;;;;35.85;33.00;;;;;;;4.70;100.00;102266.09;5028353;28;20056;-80
2024/02/17 03:42:50;;;;;;;36.55;34.13;;;;;;;4.65;100.00;102262.19;5010513;28;20045;-77
2024/02/17 03:45:18;;;;;;;36.95;34.42;;;;;;;4.65;100.00;102262.19;4992237;28;20077;-76
2024/02/17 03:47:45;;;;;;;32.72;30.63;;;;;;;4.69;100.00;102264.44;5011185;28;20050;-79
2024/02/17 03:50:12;;;;;;;38.67;35.95;;;;;;;4.67;100.00;102273.44;4991479;28;20133;-79
2024/02/17 03:52:39;;;;;;;38.10;35.70;;;;;;;4.64;100.00;102269.25;5016008;28;20667;-78
2024/02/17 03:55:07;;;;;;;35.35;33.15;;;;;;;4.65;100.00;102268.28;5010769;28;20461;-78
2024/02/17 03:57:34;;;;;;;36.47;34.28;;;;;;;4.64;100.00;102269.25;5006725;28;20549;-78
2024/02/17 04:00:00;;;;;;;36.88;34.38;;;;;;;4.63;100.00;102277.25;5017180;28;20050;-79
2024/02/17 04:02:29;;;;;;;34.10;32.10;;;;;;;4.71;100.00;102274.81;5013536;28;20049;-78
2024/02/17 04:04:56;;;;;;;37.00;34.35;;;;;;;4.71;100.00;102278.28;5009944;28;20785;-78
2024/02/17 04:07:23;;;;;;;35.72;33.42;;;;;;;4.77;100.00;102276.94;5005863;28;20057;-78
2024/02/17 04:09:52;;;;;;;39.22;36.85;;;;;;;4.74;100.00;102275.41;4998523;28;20049;-77
2024/02/17 04:12:19;;;;;;;43.78;40.97;;;;;;;4.65;100.00;102281.44;5009717;28;20542;-78
2024/02/17 04:14:49;;;;;;;37.30;34.88;;;;;;;4.68;100.00;102285.63;5011522;28;20552;-78
2024/02/17 04:17:16;;;;;;;35.65;33.45;;;;;;;4.63;100.00;102277.25;5010071;28;20132;-76
2024/02/17 04:19:47;;;;;;;40.50;38.10;;;;;;;4.63;100.00;102277.25;5009957;28;20053;-76
2024/02/17 04:22:19;;;;;;;35.88;33.58;;;;;;;4.65;100.00;102283.25;5005478;28;20046;-77
2024/02/17 04:24:52;;;;;;;32.55;30.42;;;;;;;4.63;100.00;102288.66;5010261;28;20085;-77
2024/02/17 04:27:56;;;;;;;39.80;37.20;;;;;;;4.65;100.00;102288.50;5011335;28;20100;-77
2024/02/17 04:30:33;;;;;;;35.40;33.10;;;;;;;4.61;100.00;102290.56;5013824;28;20192;-77
2024/02/17 04:33:00;;;;;;;33.25;30.77;;;;;;;4.51;100.00;102293.13;5003540;28;20064;-78
2024/02/17 04:35:29;;;;;;;38.40;34.95;;;;;;;4.52;100.00;102297.44;5010168;28;20434;-77
2024/02/17 04:37:56;;;;;;;40.33;37.60;;;;;;;4.55;100.00;102294.53;5010091;28;20059;-76
2024/02/17 04:40:23;;;;;;;38.50;35.95;;;;;;;4.67;100.00;102291.84;4994918;28;20100;-76
2024/02/17 04:43:00;;;;;;;36.88;34.58;;;;;;;4.62;100.00;102296.66;4993592;28;20129;-77
2024/02/17 04:45:30;;;;;;;35.97;32.88;;;;;;;4.65;100.00;102296.41;5000221;28;20050;-77
2024/02/17 04:47:57;;;;;;;35.17;32.83;;;;;;;4.66;100.00;102296.28;4994373;28;20054;-77
2024/02/17 04:50:24;;;;;;;40.75;37.97;;;;;;;4.50;100.00;102294.06;5008209;28;20053;-77
2024/02/17 04:53:12;;;;;;;39.75;37.05;;;;;;;4.64;100.00;102303.47;5008957;28;20787;-78
2024/02/17 04:55:40;;;;;;;36.05;33.65;;;;;;;4.67;100.00;102297.94;5019843;28;20056;-76
2024/02/17 04:58:07;;;;;;;32.45;30.15;;;;;;;4.66;100.00;102293.66;4998377;28;20098;-77
2024/02/17 05:00:38;;;;;;;34.05;31.75;;;;;;;4.55;100.00;102306.88;5005897;28;20787;-77
2024/02/17 05:03:27;;;;;;;32.10;30.00;;;;;;;4.67;100.00;102307.66;5015778;28;20058;-78
2024/02/17 05:05:54;;;;;;;33.17;30.98;;;;;;;4.59;100.00;102310.91;5011646;28;20050;-77
2024/02/17 05:08:25;;;;;;;32.33;30.13;;;;;;;4.61;100.00;102314.25;5004208;28;20536;-78
2024/02/17 05:10:52;;;;;;;33.47;30.40;;;;;;;4.63;100.00;102308.84;5009966;28;20141;-77
2024/02/17 05:13:21;;;;;;;33.80;31.42;;;;;;;4.72;100.00;102313.34;5006775;28;20062;-78
2024/02/17 05:15:51;;;;;;;31.88;29.67;;;;;;;4.71;100.00;102311.69;5020876;28;20049;-77
2024/02/17 05:18:18;;;;;;;34.95;32.45;;;;;;;4.72;100.00;102311.56;5010970;28;20058;-77
2024/02/17 05:20:47;;;;;;;31.65;29.35;;;;;;;4.72;100.00;102314.19;5005571;28;20062;-77
2024/02/17 05:23:14;;;;;;;32.33;30.23;;;;;;;4.62;100.00;102317.72;5002738;28;20054;-77
2024/02/17 05:25:44;;;;;;;34.38;31.85;;;;;;;4.68;100.00;102311.94;5004754;28;20132;-77
2024/02/17 05:28:18;;;;;;;32.60;30.40;;;;;;;4.61;100.00;102316.88;5009893;28;20062;-78
2024/02/17 05:30:46;;;;;;;33.22;30.42;;;;;;;4.63;100.00;102314.09;5008831;28;20136;-77
2024/02/17 05:33:13;;;;;;;33.03;30.67;;;;;;;4.66;100.00;102324.38;5023998;28;20046;-78
2024/02/17 05:35:41;;;;;;;32.50;29.88;;;;;;;4.53;100.00;102324.56;5014425;28;20438;-79
2024/02/17 05:38:07;;;;;;;31.00;28.80;;;;;;;4.62;100.00;102329.06;4995828;28;20051;-79
2024/02/17 05:40:36;;;;;;;30.10;27.73;;;;;;;4.59;100.00;102331.97;5012231;28;20085;-79
2024/02/17 05:43:09;;;;;;;30.35;28.25;;;;;;;4.60;100.00;102333.66;4999246;28;20058;-79
2024/02/17 05:45:37;;;;;;;29.13;27.02;;;;;;;4.61;100.00;102330.03;4995169;28;20046;-77
2024/02/17 05:48:05;;;;;;;27.90;25.70;;;;;;;4.74;100.00;102337.75;5005717;28;20089;-79
2024/02/17 05:50:38;;;;;;;30.30;28.20;;;;;;;4.99;100.00;102340.00;5007781;28;20112;-77
2024/02/17 05:53:05;;;;;;;28.77;26.77;;;;;;;4.94;100.00;102336.91;5019897;28;20041;-76
2024/02/17 05:55:35;;;;;;;25.92;24.02;;;;;;;4.76;100.00;102349.00;5015452;28;20038;-77
2024/02/17 05:58:05;;;;;;;29.55;26.70;;;;;;;4.84;100.00;102346.53;5012947;28;20428;-79
2024/02/17 06:00:35;;;;;;;29.48;26.85;;;;;;;4.85;100.00;102350.03;5010866;28;20582;-78
2024/02/17 06:03:04;;;;;;;30.85;28.48;;;;;;;4.76;100.00;102351.63;5016516;28;20045;-78
2024/02/17 06:05:34;;;;;;;28.95;26.98;;;;;;;4.90;100.00;102353.94;5014494;28;20050;-79
2024/02/17 06:08:03;;;;;;;30.55;28.25;;;;;;;4.77;100.00;102367.28;5013734;28;20052;-77
2024/02/17 06:10:30;;;;;;;30.40;28.27;;;;;;;4.74;100.00;102361.44;5005568;28;20054;-78
2024/02/17 06:13:09;;;;;;;29.85;27.85;;;;;;;4.93;100.00;102374.75;5020285;28;20058;-77
2024/02/17 06:15:42;;;;;;;32.50;29.90;;;;;;;4.96;100.00;102371.00;5033253;28;20057;-78
2024/02/17 06:21:13;;;;;;;29.42;27.38;;;;;;;4.86;100.00;102378.00;5003534;28;20049;-76
2024/02/17 06:23:44;;;;;;;31.67;29.38;;;;;;;4.82;100.00;102380.91;5013285;28;20045;-78
2024/02/17 06:26:39;;;;;;;29.63;27.65;;;;;;;4.85;100.00;102387.72;5015644;28;20119;-78
2024/02/17 06:29:12;;;;;;;27.85;25.80;;;;;;;4.72;100.00;102393.16;5010021;28;20050;-77
2024/02/17 06:31:42;;;;;;;29.20;27.13;;;;;;;4.86;100.00;102388.53;5009977;28;20133;-78
2024/02/17 06:34:09;;;;;;;27.98;26.00;;;;;;;4.71;100.00;102394.09;5004904;28;20104;-76
2024/02/17 06:36:36;;;;;;;29.10;27.10;;;;;;;4.74;100.00;102396.50;5007120;28;20895;-80
2024/02/17 06:39:04;;;;;;;31.40;29.10;;;;;;;5.80;100.00;102390.16;5010605;28;20125;-78
2024/02/17 06:41:34;;;;;;;32.80;29.63;;;;;;;5.33;100.00;102391.63;5009268;28;20053;-77
2024/02/17 06:44:01;;;;;;;28.63;26.58;;;;;;;4.94;100.00;102394.84;5005924;28;20054;-79
2024/02/17 06:46:28;;;;;;;30.35;28.15;;;;;;;4.97;100.00;102391.13;5010989;28;20093;-78
2024/02/17 06:48:58;;;;;;;29.25;27.25;;;;;;;5.01;100.00;102397.78;5011185;28;20057;-77
2024/02/17 06:51:26;;;;;;;28.52;26.52;;;;;;;4.87;100.00;102395.47;5011246;28;20077;-78
2024/02/17 06:53:55;;;;;;;28.20;26.30;;;;;;;4.88;100.00;102395.34;5008077;28;20081;-79
2024/02/17 06:56:22;;;;;;;30.08;27.95;;;;;;;4.91;100.00;102402.16;5012996;28;20133;-78
2024/02/17 06:58:51;;;;;;;34.85;32.05;;;;;;;4.96;100.00;102398.19;4999726;28;20054;-79
2024/02/17 07:01:18;;;;;;;28.42;26.33;;;;;;;4.90;100.00;102403.13;5000023;28;20042;-77
2024/02/17 07:03:48;;;;;;;28.23;26.23;;;;;;;4.88;100.00;102400.63;4996004;28;20042;-77
2024/02/17 07:06:26;;;;;;;27.08;25.17;;;;;;;4.84;100.00;102401.81;5006444;28;20673;-79
2024/02/17 07:09:14;;;;;;;27.30;25.25;;;;;;;4.91;100.00;102405.63;5007559;28;20524;-79
2024/02/17 07:11:43;;;;;;;30.95;28.20;;;;;;;4.94;100.00;102407.19;5011977;28;20050;-79
2024/02/17 07:14:13;;;;;;;28.25;26.25;;;;;;;4.90;100.00;102409.25;5000996;28;20449;-80
2024/02/17 07:16:42;;;;;;;27.38;25.55;;;;;;;4.95;100.00;102404.41;5010698;28;20490;-78
2024/02/17 07:19:09;;;;;;;28.60;26.42;;;;;;;4.94;100.00;102409.81;5009434;28;20062;-78
2024/02/17 07:21:37;;;;;;;29.85;27.67;;;;;;;4.93;100.00;102405.50;5004362;28;20052;-78
2024/02/17 07:24:04;;;;;;;28.08;26.15;;;;;;;4.73;100.00;102422.97;4999441;28;20054;-77
2024/02/17 07:26:31;;;;;;;28.85;26.90;;;;;;;4.76;100.00;102417.44;5003478;28;20038;-78
2024/02/17 07:29:01;;;;;;;29.60;27.50;;;;;;;4.79;100.00;102411.91;4993588;28;20061;-77
2024/02/17 07:31:38;;;;;;;28.00;26.10;;;;;;;4.75;100.00;102418.38;5011260;28;20054;-80
2024/02/17 07:34:07;;;;;;;29.60;27.60;;;;;;;4.73;100.00;102420.31;4994826;28;20046;-79
2024/02/17 07:36:36;;;;;;;29.52;27.42;;;;;;;4.77;100.00;102416.47;5004582;28;20042;-79
2024/02/17 07:39:08;;;;;;;31.73;29.50;;;;;;;4.76;100.00;102420.91;5020074;28;20096;-78
2024/02/17 07:41:35;;;;;;;29.05;27.15;;;;;;;5.11;100.00;102417.13;5011910;28;20062;-79
2024/02/17 07:44:03;;;;;;;29.30;27.13;;;;;;;4.88;100.00;102420.84;5011632;28;20136;-78
2024/02/17 07:46:30;;;;;;;31.25;28.65;;;;;;;4.90;100.00;102421.53;5005890;28;20061;-77
2024/02/17 07:48:57;;;;;;;25.00;23.50;;;;;;;5.04;100.00;102419.44;5002125;28;20056;-78
2024/02/17 07:52:01;;;;;;;25.65;24.15;;;;;;;5.06;100.00;102414.06;4998928;28;20054;-77
2024/02/17 07:54:31;;;;;;;26.33;24.73;;;;;;;4.91;100.00;102421.44;5007603;28;20050;-79
2024/02/17 07:56:58;;;;;;;26.38;24.42;;;;;;;4.81;100.00;102429.25;5001069;28;20086;-78
2024/02/17 07:59:28;;;;;;;26.17;24.38;;;;;;;5.03;100.00;102428.31;5011775;28;20046;-78
2024/02/17 08:02:16;;;;;;;24.98;23.27;;;;;;;5.02;100.00;102431.91;5011644;28;20108;-78
2024/02/17 08:04:55;;;;;;;27.67;25.88;;;;;;;4.94;100.00;102434.34;5012283;28;20049;-77
2024/02/17 08:07:25;;;;;;;27.85;25.90;;;;;;;4.99;100.00;102434.81;5005795;28;20051;-78
2024/02/17 08:10:02;;;;;;;28.90;26.88;;;;;;;5.05;100.00;102438.72;5010752;28;20519;-78
2024/02/17 08:12:59;;;;;;;28.35;26.35;;;;;;;5.00;100.00;102435.63;4990675;28;20165;-78
2024/02/17 08:15:27;;;;;;;25.15;23.55;;;;;;;5.13;100.00;102438.09;5011114;28;20054;-78
2024/02/17 08:18:01;;;;;;;26.38;24.67;;;;;;;4.88;100.00;102434.84;5011073;28;20456;-78
2024/02/17 08:20:28;;;;;;;27.90;26.08;;;;;;;4.95;100.00;102438.63;5010904;28;20583;-79
2024/02/17 08:22:55;;;;;;;26.80;25.00;;;;;;;4.94;100.00;102446.69;5003786;28;20580;-78
2024/02/17 08:25:26;;;;;;;25.75;23.95;;;;;;;4.90;100.00;102439.97;4992610;28;20149;-80
2024/02/17 08:27:52;;;;;;;26.42;24.63;;;;;;;4.98;100.00;102448.09;5005997;28;20056;-80
2024/02/17 08:30:36;;;;;;;25.05;23.35;;;;;;;5.01;100.00;102442.56;5010640;28;20064;-79
2024/02/17 08:33:07;;;;;;;25.70;24.10;;;;;;;4.94;100.00;102444.88;5002711;28;20056;-79
2024/02/17 08:35:44;;;;;;;27.17;25.27;;;;;;;5.09;100.00;102444.59;5010548;28;20100;-78
2024/02/17 08:38:14;;;;;;;32.25;29.83;;;;;;;5.11;100.00;102440.81;5003350;28;20890;-78
2024/02/17 08:41:03;;;;;;;31.73;29.52;;;;;;;5.17;100.00;102448.22;5003003;28;20056;-76
2024/02/17 08:43:44;;;;;;;28.65;26.65;;;;;;;5.03;100.00;102445.91;5019736;28;20512;-78
2024/02/17 08:46:11;;;;;;;26.55;24.85;;;;;;;5.16;100.00;102449.19;4996543;28;20042;-79
2024/02/17 08:48:47;;;;;;;25.15;23.55;;;;;;;5.23;100.00;102447.72;5007234;28;20667;-78
2024/02/17 08:51:15;;;;;;;26.98;25.20;;;;;;;5.15;100.00;102444.06;5004005;28;20134;-78
2024/02/17 08:53:42;;;;;;;30.13;28.10;;;;;;;5.30;100.00;102445.41;5011006;28;20089;-78
2024/02/17 08:56:13;;;;;;;31.42;29.42;;;;;;;5.12;100.00;102444.31;5009861;28;20068;-78
2024/02/17 08:58:41;;;;;;;26.63;24.92;;;;;;;5.24;100.00;102443.28;4998492;28;20054;-79
2024/02/17 09:01:11;;;;;;;26.05;24.33;;;;;;;5.27;100.00;102453.56;4996746;28;20426;-78
2024/02/17 09:03:46;;;;;;;26.08;23.95;;;;;;;5.32;100.00;102442.63;5007322;28;20046;-76
2024/02/17 09:06:16;;;;;;;28.08;26.00;;;;;;;5.09;100.00;102448.03;5010089;28;20045;-77
2024/02/17 09:08:45;;;;;;;25.83;24.08;;;;;;;5.16;100.00;102449.19;5010571;28;20541;-78
2024/02/17 09:11:22;;;;;;;26.17;24.48;;;;;;;5.23;100.00;102447.72;5011149;28;20050;-78
2024/02/17 09:14:17;;;;;;;24.95;23.35;;;;;;;5.37;100.00;102446.56;5008112;28;20050;-75
2024/02/17 09:16:44;;;;;;;24.65;23.05;;;;;;;5.39;100.00;102443.81;4991562;28;20133;-76
2024/02/17 09:19:13;;;;;;;26.10;24.40;;;;;;;5.19;100.00;102440.19;4991118;28;20510;-77
2024/02/17 09:21:42;;;;;;;26.90;25.20;;;;;;;5.39;100.00;102441.19;5011214;28;20107;-78
2024/02/17 09:24:19;;;;;;;29.70;27.33;;;;;;;5.24;100.00;102436.22;5005703;28;20049;-78
2024/02/17 09:26:50;;;;;;;25.40;23.75;;;;;;;5.23;100.00;102439.84;5010379;28;20042;-77
2024/02/17 09:29:36;;;;;;;25.92;24.10;;;;;;;5.25;100.00;102437.06;5003083;28;20058;-77
2024/02/17 09:32:05;;;;;;;26.27;24.48;;;;;;;5.13;100.00;102428.38;4997796;28;20047;-77
2024/02/17 09:34:34;;;;;;;26.52;24.77;;;;;;;5.35;100.00;102437.09;5005523;28;20088;-77
2024/02/17 09:37:03;;;;;;;24.08;22.60;;;;;;;5.24;100.00;102436.22;5013515;28;20053;-78
2024/02/17 09:39:36;;;;;;;25.70;24.13;;;;;;;5.43;100.00;102440.75;5013363;28;20050;-79
2024/02/17 09:42:07;;;;;;;24.95;23.45;;;;;;;5.48;100.00;102440.38;5013816;28;20042;-78
2024/02/17 09:44:35;;;;;;;25.67;24.17;;;;;;;5.61;100.00;102437.53;5014576;28;20411;-79
2024/02/17 09:47:08;;;;;;;25.75;24.25;;;;;;;5.57;100.00;102436.97;5014766;28;20068;-78
2024/02/17 09:49:37;;;;;;;28.85;26.70;;;;;;;5.76;100.00;102440.66;5000318;28;20073;-77
2024/02/17 09:52:12;;;;;;;25.35;23.40;;;;;;;5.21;100.00;102425.94;5009206;28;20046;-78
2024/02/17 09:54:40;;;;;;;26.33;24.63;;;;;;;5.50;100.00;102431.38;5014543;28;20057;-77
2024/02/17 09:57:18;;;;;;;25.10;23.60;;;;;;;5.65;100.00;102431.03;5014714;28;20475;-77
2024/02/17 09:59:52;;;;;;;27.55;25.50;;;;;;;5.61;100.00;102432.25;5014712;28;20050;-78
2024/02/17 10:02:32;;;;;;;25.88;24.17;;;;;;;5.42;100.00;102420.66;5014466;28;20153;-77
2024/02/17 10:05:03;;;;;;;26.10;24.42;;;;;;;5.60;100.00;102420.03;5015134;28;20060;-76
2024/02/17 10:07:30;;;;;;;28.75;26.95;;;;;;;5.43;100.00;102418.84;5012610;28;20056;-77
2024/02/17 10:10:07;;;;;;;25.65;23.95;;;;;;;5.66;100.00;102417.72;5012305;28;20053;-79
2024/02/17 10:13:03;;;;;;;25.42;23.67;;;;;;;5.64;100.00;102416.19;5005526;28;20050;-78
2024/02/17 10:15:32;;;;;;;24.33;22.80;;;;;;;5.78;100.00;102412.34;4992991;28;20046;-80
2024/02/17 10:18:06;;;;;;;25.83;23.92;;;;;;;5.80;100.00;102405.97;5006336;28;20046;-78
2024/02/17 10:20:44;;;;;;;25.90;24.30;;;;;;;5.64;100.00;102419.66;4998664;28;20501;-76
2024/02/17 10:23:23;;;;;;;25.63;23.80;;;;;;;5.62;100.00;102418.09;5007766;28;20612;-78
2024/02/17 10:25:50;;;;;;;25.73;24.05;;;;;;;5.69;100.00;102419.28;5012301;28;20101;-77
2024/02/17 10:28:31;;;;;;;24.00;22.50;;;;;;;5.59;100.00;102415.72;5010459;28;20041;-77
2024/02/17 10:31:08;;;;;;;25.80;24.00;;;;;;;5.86;100.00;102404.59;4993501;28;20641;-78
2024/02/17 10:37:24;;;;;;;27.77;25.48;;;;;;;5.68;100.00;102407.88;4999869;28;20041;-77
2024/02/17 10:40:12;;;;;;;24.50;22.90;;;;;;;5.96;100.00;102416.03;5001923;28;20054;-77
2024/02/17 10:42:48;;;;;;;23.40;21.80;;;;;;;5.89;100.00;102418.34;5014124;28;20053;-77
2024/02/17 10:45:33;;;;;;;26.35;24.52;;;;;;;5.43;100.00;102409.16;4997121;28;20054;-76
2024/02/17 10:48:09;;;;;;;28.33;26.20;;;;;;;5.70;100.00;102410.38;4999000;28;20049;-78
2024/02/17 10:50:41;;;;;;;24.23;22.63;;;;;;;5.64;100.00;102403.00;5013390;28;20605;-81
2024/02/17 10:53:22;;;;;;;24.47;22.97;;;;;;;5.94;100.00;102402.19;5006888;28;20057;-79
2024/02/17 10:55:55;;;;;;;24.65;22.85;;;;;;;6.05;100.00;102401.22;5013417;28;20335;-78
2024/02/17 10:58:25;;;;;;;22.92;21.33;;;;;;;5.55;100.00;102396.72;5011596;28;20053;-78
2024/02/17 11:00:54;;;;;;;22.73;21.23;;;;;;;5.73;100.00;102399.56;5009371;28;20506;-78
2024/02/17 11:03:25;;;;;;;23.80;22.25;;;;;;;5.89;100.00;102396.44;5013380;28;20081;-78
2024/02/17 11:05:56;;;;;;;22.27;20.88;;;;;;;5.81;100.00;102404.16;5010076;28;20049;-79
2024/02/17 11:08:24;;;;;;;26.02;24.38;;;;;;;5.60;100.00;102397.16;5001883;28;20046;-78
2024/02/17 11:10:53;;;;;;;23.10;21.50;;;;;;;5.73;100.00;102412.75;5001815;28;20054;-79
2024/02/17 11:13:24;;;;;;;24.67;22.98;;;;;;;5.68;100.00;102407.88;5002161;28;20056;-78
2024/02/17 11:16:07;;;;;;;24.10;22.50;;;;;;;6.00;100.00;102408.72;5000862;28;20501;-78
2024/02/17 11:18:36;;;;;;;24.00;22.40;;;;;;;5.83;100.00;102407.50;5006060;28;20056;-78
2024/02/17 11:21:06;;;;;;;22.42;21.02;;;;;;;5.74;100.00;102409.97;5009043;28;20060;-78
2024/02/17 11:23:36;;;;;;;22.50;21.10;;;;;;;5.73;100.00;102408.31;5005030;28;20132;-78
2024/02/17 11:26:03;;;;;;;24.77;22.52;;;;;;;5.80;100.00;102407.78;5007836;28;20050;-78
2024/02/17 11:29:02;;;;;;;27.13;25.23;;;;;;;5.87;100.00;102395.72;5010224;28;20445;-77
2024/02/17 11:31:48;;;;;;;22.30;21.00;;;;;;;5.95;100.00;102398.56;4970626;28;20061;-75
2024/02/17 11:34:17;;;;;;;22.40;21.00;;;;;;;5.92;100.00;102399.63;4997322;28;20054;-78
2024/02/17 11:40:00;;;;;;;23.52;21.92;;;;;;;5.92;100.00;102401.44;5003877;28;20057;-77
2024/02/17 11:42:27;;;;;;;23.63;21.67;;;;;;;5.97;100.00;102394.81;5012518;28;20053;-78